Minneapolis, Minnesota
Traffic Map
Current Weather Conditions
Minneapolis, Minnesota
Overcast
Overcast
64°
Feels Like: 64°
Wind Chill: 64° Ceiling: 7000
Heat Index: 64° Visibility: 10mi
Dew Point: 58° Wind: 5mph
Humidity: 80% Direction: 340° (NNW)
Pressure: 30.19in Gusts: 0mph
Raw Report DataKMSP 281153Z 34004KT 10SM OVC070 18/14 A3019 RMK AO2 SLP220 70003 T01780144 10183 20172 51013
Traffic Incident Summary
Active as of:
Severity:
Category:
InformationThere was an issue retrieving the traffic information for this location. Please try a different location or try again shortly.
Advertisements
Track Severe Weather on mobile